Buoy 17652

sailwx.info

Track history (hours):
 
Tides and Currents Weather Stations Pressure Air Temp Water Temp Dewpoint Dewpoint Depression Visibility Wind Speed Wind Dir Waves Ship Positions

Drifting buoy 17652

Last reported at 2017-Sep-26 12:00 UTC. Time now 2017-Sep-26 12:47 UTC.
Position S 34°59' E 056°46'.

Barometer 1025.7 mb
Water temperature 15.0 ° C

Date/timePositionNaut miles runAvg speedWind from/ knotsBaromVisibWave heightAir tempDewpointWater temp
2017-Sep-26 12:00S 34°59' E 056°46'0 0.0 1025.7 15.0
2017-Sep-26 10:00S 34°59' E 056°46'0 0.1 1025.9 14.9
2017-Sep-26 06:00S 34°59' E 056°46'1 1.0 1028.0 14.9
2017-Sep-26 05:00S 34°59' E 056°47'2 2.3 1028.0 14.9
2017-Sep-26 04:00S 34°58' E 056°50'0 0.0 1028.0 14.9
2017-Sep-26 03:00S 34°58' E 056°50'0 0.5 1028.0 14.9
2017-Sep-26 02:00S 34°58' E 056°50'1 1.2 1027.1 14.9
2017-Sep-26 01:00S 34°58' E 056°52'2 1.2 1027.0 14.9
2017-Sep-25 23:00S 34°56' E 056°54'5 5.0 1027.5 14.9
2017-Sep-25 22:00S 34°54' E 056°59'3 3.5 1027.5 14.9
2017-Sep-25 21:00S 34°56' E 056°56'6 1.9 1028.1 15.0
2017-Sep-25 18:00S 34°53' E 057°02'1 0.6 1028.3 15.2
2017-Sep-25 17:00S 34°52' E 057°02'2 2.0 1028.8 15.2
2017-Sep-25 16:00S 34°52' E 057°04'0 0.5 1028.6 15.3
2017-Sep-25 15:00S 34°52' E 057°05'2 2.0 1027.9 15.2
2017-Sep-25 14:00S 34°52' E 057°07'0 0.5 1027.6 15.2
2017-Sep-25 13:00S 34°52' E 057°08'2 1.6 1026.9 15.2
2017-Sep-25 12:00S 34°51' E 057°09'0 0.0 1026.6 15.2
2017-Sep-25 11:00S 34°51' E 057°09'4 4.0 1026.6 14.9
2017-Sep-25 10:00S 34°50' E 057°14'0 0.0 1026.9 14.8
2017-Sep-25 06:00S 34°50' E 057°14'1 0.8 1027.8 14.6
2017-Sep-25 05:00S 34°50' E 057°14'1 0.8 1028.1 14.6
2017-Sep-25 04:00S 34°50' E 057°15'2 2.0 1028.6 14.6
2017-Sep-25 03:00S 34°50' E 057°17'1 0.8 1027.8 14.6
2017-Sep-25 02:00S 34°50' E 057°18'1 1.5 1026.9 14.6
2017-Sep-25 01:00S 34°50' E 057°20'0 0.0 1026.0 14.6
2017-Sep-25 00:00S 34°50' E 057°20'1 1.5 1025.6 14.6
2017-Sep-24 23:00S 34°50' E 057°22'1 0.8 1025.1 14.6
2017-Sep-24 22:00S 34°50' E 057°22'0 0.0 1025.2 14.6
2017-Sep-24 21:00S 34°50' E 057°22'3 1.3 1025.0 14.6
2017-Sep-24 19:00S 34°51' E 057°25'1 1.0 1024.4 14.6
2017-Sep-24 18:00S 34°51' E 057°26'1 1.2 1024.4 14.6
2017-Sep-24 17:00S 34°52' E 057°28'0 0.5 1024.1 14.6
2017-Sep-24 16:00S 34°52' E 057°28'3 2.5 1023.7 14.7
2017-Sep-24 15:00S 34°52' E 057°31'0 0.0 1023.3 14.7
2017-Sep-24 14:00S 34°52' E 057°31'0 0.0 1022.7 14.7
2017-Sep-24 13:00S 34°52' E 057°31'1 1.2 1021.8 14.7
2017-Sep-24 12:00S 34°53' E 057°32'1 0.3 1021.2 14.8
2017-Sep-24 10:00S 34°53' E 057°32'2 0.4 1020.0 14.9
2017-Sep-24 06:00S 34°53' E 057°34'1 1.2 1021.2 14.8
2017-Sep-24 05:00S 34°52' E 057°35'1 0.8 1021.3 14.8
2017-Sep-24 04:00S 34°52' E 057°36'0 0.0 1021.1 14.8
2017-Sep-24 03:00S 34°52' E 057°36'2 1.6 1021.2 14.8
2017-Sep-24 02:00S 34°50' E 057°37'0 0.0 1020.7 14.7
2017-Sep-24 01:00S 34°50' E 057°37'0 0.5 1021.2 14.7
2017-Sep-24 00:00S 34°50' E 057°38'1 0.8 1021.6 14.7
2017-Sep-23 23:00S 34°50' E 057°38'0 0.0 1022.4 14.7
2017-Sep-23 22:00S 34°50' E 057°38'2 1.6 1023.0 14.8
2017-Sep-23 21:00S 34°49' E 057°40'1 0.3 1023.0 14.8
2017-Sep-23 18:00S 34°49' E 057°41'1 0.8 1025.0 14.8
2017-Sep-23 17:00S 34°49' E 057°41'0 0.0 1024.9 14.8
2017-Sep-23 16:00S 34°49' E 057°41'3 1.3 1025.7 14.8
2017-Sep-23 14:00S 34°48' E 057°44'1 1.0 1025.6 14.9
2017-Sep-23 13:00S 34°48' E 057°45'1 0.8 1025.9 14.9
2017-Sep-23 12:00S 34°47' E 057°46'0 0.0 1026.3 14.9
2017-Sep-23 11:00S 34°47' E 057°46'0 0.0 1026.7 14.8
2017-Sep-23 10:00S 34°47' E 057°46'3 0.6 1027.3 14.8
2017-Sep-23 06:00S 34°47' E 057°49'0 0.0 1030.0 14.6
2017-Sep-23 05:00S 34°47' E 057°49'1 1.0 1030.5 14.6
2017-Sep-23 04:00S 34°47' E 057°50'0 0.0 1030.2 14.6
2017-Sep-23 03:00S 34°47' E 057°50'1 1.2 1030.5 14.6
2017-Sep-23 02:00S 34°46' E 057°51'1 1.0 1030.8 14.6
2017-Sep-23 01:00S 34°46' E 057°52'0 0.5 1030.7 14.5
2017-Sep-23 00:00S 34°46' E 057°53'0 0.5 1031.2 14.5
2017-Sep-22 23:00S 34°46' E 057°53'0 0.0
2017-Sep-22 22:00S 34°46' E 057°53'0 0.0 1031.5 14.6
2017-Sep-22 21:00S 34°46' E 057°53'3 1.3 1032.3 14.6
2017-Sep-22 19:00S 34°46' E 057°56'0 0.0 1032.5 14.6
2017-Sep-22 18:00S 34°46' E 057°56'2 1.6 1033.3 14.6
2017-Sep-22 17:00S 34°45' E 057°58'1 1.0 1033.3 14.6
2017-Sep-22 16:00S 34°45' E 057°59'0 0.0 1033.8 14.6
2017-Sep-22 15:00S 34°45' E 057°59'0 0.5 1033.6 14.6
2017-Sep-22 14:00S 34°45' E 058°00'1 1.5 1033.6 14.6
2017-Sep-22 13:00S 34°45' E 058°02'2 2.0 1033.5 14.7
2017-Sep-22 12:00S 34°45' E 058°04'0 0.0 1033.8 14.7
2017-Sep-22 11:00S 34°45' E 058°04'0 0.0 1034.1 14.6
2017-Sep-22 10:00S 34°45' E 058°04'5 1.4 1034.3 14.6
2017-Sep-22 06:00S 34°46' E 058°11'1 1.0 1034.8 14.6
2017-Sep-22 05:00S 34°46' E 058°12'1 1.5 1034.7 14.5
2017-Sep-22 04:00S 34°46' E 058°14'0 0.0 1034.3 14.5
2017-Sep-22 03:00S 34°46' E 058°14'2 2.5 1034.2 14.5
2017-Sep-22 02:00S 34°46' E 058°17'1 1.5 1033.8 14.5
2017-Sep-22 01:00S 34°46' E 058°19'0 0.0 1033.3 14.5
2017-Sep-22 00:00S 34°46' E 058°19'3 2.7 1033.0 14.5
2017-Sep-21 23:00S 34°47' E 058°22'5 1.0 1033.1 14.5
2017-Sep-21 18:00S 34°48' E 058°28'2 2.0 1032.6 14.6
2017-Sep-21 17:00S 34°48' E 058°30'0 0.0 1032.1 14.6
2017-Sep-21 16:00S 34°48' E 058°30'2 1.6 1031.8 14.6
2017-Sep-21 15:00S 34°49' E 058°32'2 1.6 1031.1 14.6
2017-Sep-21 14:00S 34°49' E 058°34'0 0.5 1030.4 14.6
2017-Sep-21 13:00S 34°49' E 058°34'2 2.1 1029.8 14.7
2017-Sep-21 12:00S 34°50' E 058°37'6 5.8 1029.1 14.7
2017-Sep-21 11:00S 34°53' E 058°43'6 5.8 1028.7 14.7
2017-Sep-21 10:00S 34°50' E 058°37'5 1.3 1028.6 14.7
2017-Sep-21 06:00S 34°53' E 058°42'2 1.6 1027.7 14.6
2017-Sep-21 05:00S 34°53' E 058°44'0 0.5 1027.4 14.6
2017-Sep-21 04:00S 34°53' E 058°44'1 1.2 1027.1 14.6
2017-Sep-21 03:00S 34°54' E 058°46'0 0.0 1026.7 14.5
2017-Sep-21 02:00S 34°54' E 058°46'0 0.5 1026.2 14.6
2017-Sep-21 01:00S 34°54' E 058°46'2 1.0 1025.4 14.6
2017-Sep-20 23:00S 34°55' E 058°48'0 0.0 1025.5 14.6
2017-Sep-20 22:00S 34°55' E 058°48'3 0.9 1025.6 14.6
2017-Sep-20 19:00S 34°57' E 058°50'0 0.5 1025.9 14.6
2017-Sep-20 18:00S 34°57' E 058°51'0 0.0 1026.3 14.6
2017-Sep-20 17:00S 34°57' E 058°51'1 0.6 1026.9 14.6
2017-Sep-20 15:00S 34°58' E 058°52'0 0.0 1026.6 14.7
2017-Sep-20 14:00S 34°58' E 058°52'1 1.0 1026.5 14.7
2017-Sep-20 13:00S 34°58' E 058°53'0 0.5 1026.3 14.7
2017-Sep-20 12:00S 34°58' E 058°54'3 2.7 1026.6 14.7
2017-Sep-20 11:00S 34°59' E 058°57'0 0.0 1026.9 14.7
2017-Sep-20 06:00S 34°59' E 058°57'0 0.5 1029.7 14.5
2017-Sep-20 05:00S 34°59' E 058°58'1 0.8 1029.6 14.5
2017-Sep-20 04:00S 34°59' E 058°58'0 0.5 1029.5 14.4
2017-Sep-20 03:00S 34°59' E 058°59'0 0.0 1029.2 14.4
2017-Sep-20 02:00S 34°59' E 058°59'2 2.1 1028.9 14.4
2017-Sep-20 01:00S 35°00' E 059°01'0 0.0 1028.6 14.4
2017-Sep-20 00:00S 35°00' E 059°01'0 0.5 1028.6 14.4
2017-Sep-19 23:00S 35°00' E 059°01'1 1.0 1028.6 14.5
2017-Sep-19 22:00S 35°00' E 059°02'2 0.6 1028.9 14.5
2017-Sep-19 19:00S 35°01' E 059°04'2 0.5 1029.8 14.5
2017-Sep-19 16:00S 35°02' E 059°05'1 1.5 1030.2 14.6
2017-Sep-19 15:00S 35°02' E 059°07'2 1.6 1029.7 14.6
2017-Sep-19 14:00S 35°03' E 059°08'0 0.5 1029.2 14.6
2017-Sep-19 13:00S 35°03' E 059°09'1 0.6 1028.6 14.7
2017-Sep-19 12:00S 35°04' E 059°09'6 0.9 1028.3 14.7
2017-Sep-19 05:00S 35°08' E 059°14'2 2.1 1027.4 14.5
2017-Sep-19 04:00S 35°10' E 059°16'0 0.0 1026.6 14.5
2017-Sep-19 03:00S 35°10' E 059°16'1 1.3 1025.8 14.5
2017-Sep-19 02:00S 35°11' E 059°16'1 0.6 1024.7 14.5
2017-Sep-19 01:00S 35°11' E 059°16'0 0.0 1023.7 14.5
2017-Sep-18 23:00S 35°11' E 059°16'1 1.1 1022.9 14.5
2017-Sep-18 22:00S 35°12' E 059°17'2 0.5 1023.0 14.5
2017-Sep-18 18:00S 35°14' E 059°18'1 1.3 1023.2 14.5
2017-Sep-18 17:00S 35°15' E 059°19'0 0.0 1022.8 14.5
2017-Sep-18 16:00S 35°15' E 059°19'1 0.6 1022.4 14.5
2017-Sep-18 15:00S 35°16' E 059°19'1 1.1 1022.0 14.5
2017-Sep-18 14:00S 35°16' E 059°20'1 1.1 1021.3 14.5
2017-Sep-18 13:00S 35°16' E 059°19'2 2.3 1020.8 14.6
2017-Sep-18 12:00S 35°17' E 059°20'5 4.8 1020.2 14.6
2017-Sep-18 11:00S 35°22' E 059°21'0 0.1 1019.7 14.6
2017-Sep-18 06:00S 35°22' E 059°22'1 0.6 1018.1 14.6
2017-Sep-18 05:00S 35°23' E 059°22'1 1.3 1017.4 14.5
2017-Sep-18 04:00S 35°24' E 059°21'0 0.5 1016.7 14.5
2017-Sep-18 03:00S 35°24' E 059°20'1 1.1 1015.5 14.5
2017-Sep-18 02:00S 35°25' E 059°22'1 0.8 1014.3 14.5
2017-Sep-18 01:00S 35°25' E 059°21'1 1.3 1013.3 14.5
2017-Sep-18 00:00S 35°26' E 059°20'1 0.8 1012.3 14.5
2017-Sep-17 23:00S 35°26' E 059°21'1 1.3 1011.7 14.5
2017-Sep-17 22:00S 35°27' E 059°20'3 3.0 1010.7 14.6
2017-Sep-17 21:00S 35°30' E 059°21'0 0.0 1010.4 14.6
2017-Sep-17 19:00S 35°30' E 059°21'0 0.0 1008.9 14.6
2017-Sep-17 18:00S 35°30' E 059°21'2 2.4 1007.0 14.6
2017-Sep-17 17:00S 35°32' E 059°20'0 0.0 1006.0 14.6
2017-Sep-17 15:00S 35°32' E 059°20'1 0.8 1003.9 14.7
2017-Sep-17 14:00S 35°33' E 059°21'2 0.9 1002.2 14.7
2017-Sep-17 12:00S 35°34' E 059°19'0 0.0 1000.1 14.7
2017-Sep-17 11:00S 35°34' E 059°19'1 0.8 1000.4 14.7
2017-Sep-17 10:00S 35°34' E 059°19'0 0.0 1001.5 14.7
2017-Sep-17 09:00S 35°34' E 059°19'0 0.2 1003.1 14.7
2017-Sep-17 06:00S 35°34' E 059°19'0 0.5 1007.9 14.7
2017-Sep-17 05:00S 35°34' E 059°19'0 0.2 1008.5 14.6
2017-Sep-17 03:00S 35°34' E 059°19'1 0.8 1009.5 14.6
2017-Sep-17 02:00S 35°33' E 059°20'0 0.0 1010.0 14.6
2017-Sep-17 01:00S 35°33' E 059°20'0 0.5 1010.7 14.6
2017-Sep-17 00:00S 35°33' E 059°19'0 0.0 1011.3 14.6
2017-Sep-16 23:00S 35°33' E 059°19'1 0.6 1011.3 14.6
2017-Sep-16 22:00S 35°32' E 059°19'4 0.8 1011.8 14.6
2017-Sep-16 17:00S 35°35' E 059°23'0 0.0 1013.3 14.7
2017-Sep-16 16:00S 35°35' E 059°23'0 0.0 1012.8 14.7
2017-Sep-16 15:00S 35°35' E 059°23'0 0.0 1012.2 14.7
2017-Sep-16 14:00S 35°35' E 059°23'2 1.5 1011.3 14.7
2017-Sep-16 13:00S 35°36' E 059°24'4 4.1 1010.8 14.8
2017-Sep-16 12:00S 35°40' E 059°26'   1011.0 14.7
Track history (hours):
 
Tides and Currents Weather Stations Pressure Air Temp Water Temp Dewpoint Dewpoint Depression Visibility Wind Speed Wind Dir Waves Ship Positions

Drifting buoy 17652

Last reported at 2017-Sep-26 12:00 UTC. Time now 2017-Sep-26 12:47 UTC.
Position S 34°59' E 056°46'.

Barometer 1025.7 mb
Water temperature 15.0 ° C

Date/timePositionNaut miles runAvg speedWind from/ knotsBaromVisibWave heightAir tempDewpointWater temp
2017-Sep-26 12:00S 34°59' E 056°46'0 0.0 1025.7 15.0
2017-Sep-26 10:00S 34°59' E 056°46'0 0.1 1025.9 14.9
2017-Sep-26 06:00S 34°59' E 056°46'1 1.0 1028.0 14.9
2017-Sep-26 05:00S 34°59' E 056°47'2 2.3 1028.0 14.9
2017-Sep-26 04:00S 34°58' E 056°50'0 0.0 1028.0 14.9
2017-Sep-26 03:00S 34°58' E 056°50'0 0.5 1028.0 14.9
2017-Sep-26 02:00S 34°58' E 056°50'1 1.2 1027.1 14.9
2017-Sep-26 01:00S 34°58' E 056°52'2 1.2 1027.0 14.9
2017-Sep-25 23:00S 34°56' E 056°54'5 5.0 1027.5 14.9
2017-Sep-25 22:00S 34°54' E 056°59'3 3.5 1027.5 14.9
2017-Sep-25 21:00S 34°56' E 056°56'6 1.9 1028.1 15.0
2017-Sep-25 18:00S 34°53' E 057°02'1 0.6 1028.3 15.2
2017-Sep-25 17:00S 34°52' E 057°02'2 2.0 1028.8 15.2
2017-Sep-25 16:00S 34°52' E 057°04'0 0.5 1028.6 15.3
2017-Sep-25 15:00S 34°52' E 057°05'2 2.0 1027.9 15.2
2017-Sep-25 14:00S 34°52' E 057°07'0 0.5 1027.6 15.2
2017-Sep-25 13:00S 34°52' E 057°08'2 1.6 1026.9 15.2
2017-Sep-25 12:00S 34°51' E 057°09'0 0.0 1026.6 15.2
2017-Sep-25 11:00S 34°51' E 057°09'4 4.0 1026.6 14.9
2017-Sep-25 10:00S 34°50' E 057°14'0 0.0 1026.9 14.8
2017-Sep-25 06:00S 34°50' E 057°14'1 0.8 1027.8 14.6
2017-Sep-25 05:00S 34°50' E 057°14'1 0.8 1028.1 14.6
2017-Sep-25 04:00S 34°50' E 057°15'2 2.0 1028.6 14.6
2017-Sep-25 03:00S 34°50' E 057°17'1 0.8 1027.8 14.6
2017-Sep-25 02:00S 34°50' E 057°18'1 1.5 1026.9 14.6
2017-Sep-25 01:00S 34°50' E 057°20'0 0.0 1026.0 14.6
2017-Sep-25 00:00S 34°50' E 057°20'1 1.5 1025.6 14.6
2017-Sep-24 23:00S 34°50' E 057°22'1 0.8 1025.1 14.6
2017-Sep-24 22:00S 34°50' E 057°22'0 0.0 1025.2 14.6
2017-Sep-24 21:00S 34°50' E 057°22'3 1.3 1025.0 14.6
2017-Sep-24 19:00S 34°51' E 057°25'1 1.0 1024.4 14.6
2017-Sep-24 18:00S 34°51' E 057°26'1 1.2 1024.4 14.6
2017-Sep-24 17:00S 34°52' E 057°28'0 0.5 1024.1 14.6
2017-Sep-24 16:00S 34°52' E 057°28'3 2.5 1023.7 14.7
2017-Sep-24 15:00S 34°52' E 057°31'0 0.0 1023.3 14.7
2017-Sep-24 14:00S 34°52' E 057°31'0 0.0 1022.7 14.7
2017-Sep-24 13:00S 34°52' E 057°31'1 1.2 1021.8 14.7
2017-Sep-24 12:00S 34°53' E 057°32'1 0.3 1021.2 14.8
2017-Sep-24 10:00S 34°53' E 057°32'2 0.4 1020.0 14.9
2017-Sep-24 06:00S 34°53' E 057°34'1 1.2 1021.2 14.8
2017-Sep-24 05:00S 34°52' E 057°35'1 0.8 1021.3 14.8
2017-Sep-24 04:00S 34°52' E 057°36'0 0.0 1021.1 14.8
2017-Sep-24 03:00S 34°52' E 057°36'2 1.6 1021.2 14.8
2017-Sep-24 02:00S 34°50' E 057°37'0 0.0 1020.7 14.7
2017-Sep-24 01:00S 34°50' E 057°37'0 0.5 1021.2 14.7
2017-Sep-24 00:00S 34°50' E 057°38'1 0.8 1021.6 14.7
2017-Sep-23 23:00S 34°50' E 057°38'0 0.0 1022.4 14.7
2017-Sep-23 22:00S 34°50' E 057°38'2 1.6 1023.0 14.8
2017-Sep-23 21:00S 34°49' E 057°40'1 0.3 1023.0 14.8
2017-Sep-23 18:00S 34°49' E 057°41'1 0.8 1025.0 14.8
2017-Sep-23 17:00S 34°49' E 057°41'0 0.0 1024.9 14.8
2017-Sep-23 16:00S 34°49' E 057°41'3 1.3 1025.7 14.8
2017-Sep-23 14:00S 34°48' E 057°44'1 1.0 1025.6 14.9
2017-Sep-23 13:00S 34°48' E 057°45'1 0.8 1025.9 14.9
2017-Sep-23 12:00S 34°47' E 057°46'0 0.0 1026.3 14.9
2017-Sep-23 11:00S 34°47' E 057°46'0 0.0 1026.7 14.8
2017-Sep-23 10:00S 34°47' E 057°46'3 0.6 1027.3 14.8
2017-Sep-23 06:00S 34°47' E 057°49'0 0.0 1030.0 14.6
2017-Sep-23 05:00S 34°47' E 057°49'1 1.0 1030.5 14.6
2017-Sep-23 04:00S 34°47' E 057°50'0 0.0 1030.2 14.6
2017-Sep-23 03:00S 34°47' E 057°50'1 1.2 1030.5 14.6
2017-Sep-23 02:00S 34°46' E 057°51'1 1.0 1030.8 14.6
2017-Sep-23 01:00S 34°46' E 057°52'0 0.5 1030.7 14.5
2017-Sep-23 00:00S 34°46' E 057°53'0 0.5 1031.2 14.5
2017-Sep-22 23:00S 34°46' E 057°53'0 0.0
2017-Sep-22 22:00S 34°46' E 057°53'0 0.0 1031.5 14.6
2017-Sep-22 21:00S 34°46' E 057°53'3 1.3 1032.3 14.6
2017-Sep-22 19:00S 34°46' E 057°56'0 0.0 1032.5 14.6
2017-Sep-22 18:00S 34°46' E 057°56'2 1.6 1033.3 14.6
2017-Sep-22 17:00S 34°45' E 057°58'1 1.0 1033.3 14.6
2017-Sep-22 16:00S 34°45' E 057°59'0 0.0 1033.8 14.6
2017-Sep-22 15:00S 34°45' E 057°59'0 0.5 1033.6 14.6
2017-Sep-22 14:00S 34°45' E 058°00'1 1.5 1033.6 14.6
2017-Sep-22 13:00S 34°45' E 058°02'2 2.0 1033.5 14.7
2017-Sep-22 12:00S 34°45' E 058°04'0 0.0 1033.8 14.7
2017-Sep-22 11:00S 34°45' E 058°04'0 0.0 1034.1 14.6
2017-Sep-22 10:00S 34°45' E 058°04'5 1.4 1034.3 14.6
2017-Sep-22 06:00S 34°46' E 058°11'1 1.0 1034.8 14.6
2017-Sep-22 05:00S 34°46' E 058°12'1 1.5 1034.7 14.5
2017-Sep-22 04:00S 34°46' E 058°14'0 0.0 1034.3 14.5
2017-Sep-22 03:00S 34°46' E 058°14'2 2.5 1034.2 14.5
2017-Sep-22 02:00S 34°46' E 058°17'1 1.5 1033.8 14.5
2017-Sep-22 01:00S 34°46' E 058°19'0 0.0 1033.3 14.5
2017-Sep-22 00:00S 34°46' E 058°19'3 2.7 1033.0 14.5
2017-Sep-21 23:00S 34°47' E 058°22'5 1.0 1033.1 14.5
2017-Sep-21 18:00S 34°48' E 058°28'2 2.0 1032.6 14.6
2017-Sep-21 17:00S 34°48' E 058°30'0 0.0 1032.1 14.6
2017-Sep-21 16:00S 34°48' E 058°30'2 1.6 1031.8 14.6
2017-Sep-21 15:00S 34°49' E 058°32'2 1.6 1031.1 14.6
2017-Sep-21 14:00S 34°49' E 058°34'0 0.5 1030.4 14.6
2017-Sep-21 13:00S 34°49' E 058°34'2 2.1 1029.8 14.7
2017-Sep-21 12:00S 34°50' E 058°37'6 5.8 1029.1 14.7
2017-Sep-21 11:00S 34°53' E 058°43'6 5.8 1028.7 14.7
2017-Sep-21 10:00S 34°50' E 058°37'5 1.3 1028.6 14.7
2017-Sep-21 06:00S 34°53' E 058°42'2 1.6 1027.7 14.6
2017-Sep-21 05:00S 34°53' E 058°44'0 0.5 1027.4 14.6
2017-Sep-21 04:00S 34°53' E 058°44'1 1.2 1027.1 14.6
2017-Sep-21 03:00S 34°54' E 058°46'0 0.0 1026.7 14.5
2017-Sep-21 02:00S 34°54' E 058°46'0 0.5 1026.2 14.6
2017-Sep-21 01:00S 34°54' E 058°46'2 1.0 1025.4 14.6
2017-Sep-20 23:00S 34°55' E 058°48'0 0.0 1025.5 14.6
2017-Sep-20 22:00S 34°55' E 058°48'3 0.9 1025.6 14.6
2017-Sep-20 19:00S 34°57' E 058°50'0 0.5 1025.9 14.6
2017-Sep-20 18:00S 34°57' E 058°51'0 0.0 1026.3 14.6
2017-Sep-20 17:00S 34°57' E 058°51'1 0.6 1026.9 14.6
2017-Sep-20 15:00S 34°58' E 058°52'0 0.0 1026.6 14.7
2017-Sep-20 14:00S 34°58' E 058°52'1 1.0 1026.5 14.7
2017-Sep-20 13:00S 34°58' E 058°53'0 0.5 1026.3 14.7
2017-Sep-20 12:00S 34°58' E 058°54'3 2.7 1026.6 14.7
2017-Sep-20 11:00S 34°59' E 058°57'0 0.0 1026.9 14.7
2017-Sep-20 06:00S 34°59' E 058°57'0 0.5 1029.7 14.5
2017-Sep-20 05:00S 34°59' E 058°58'1 0.8 1029.6 14.5
2017-Sep-20 04:00S 34°59' E 058°58'0 0.5 1029.5 14.4
2017-Sep-20 03:00S 34°59' E 058°59'0 0.0 1029.2 14.4
2017-Sep-20 02:00S 34°59' E 058°59'2 2.1 1028.9 14.4
2017-Sep-20 01:00S 35°00' E 059°01'0 0.0 1028.6 14.4
2017-Sep-20 00:00S 35°00' E 059°01'0 0.5 1028.6 14.4
2017-Sep-19 23:00S 35°00' E 059°01'1 1.0 1028.6 14.5
2017-Sep-19 22:00S 35°00' E 059°02'2 0.6 1028.9 14.5
2017-Sep-19 19:00S 35°01' E 059°04'2 0.5 1029.8 14.5
2017-Sep-19 16:00S 35°02' E 059°05'1 1.5 1030.2 14.6
2017-Sep-19 15:00S 35°02' E 059°07'2 1.6 1029.7 14.6
2017-Sep-19 14:00S 35°03' E 059°08'0 0.5 1029.2 14.6
2017-Sep-19 13:00S 35°03' E 059°09'1 0.6 1028.6 14.7
2017-Sep-19 12:00S 35°04' E 059°09'6 0.9 1028.3 14.7
2017-Sep-19 05:00S 35°08' E 059°14'2 2.1 1027.4 14.5
2017-Sep-19 04:00S 35°10' E 059°16'0 0.0 1026.6 14.5
2017-Sep-19 03:00S 35°10' E 059°16'1 1.3 1025.8 14.5
2017-Sep-19 02:00S 35°11' E 059°16'1 0.6 1024.7 14.5
2017-Sep-19 01:00S 35°11' E 059°16'0 0.0 1023.7 14.5
2017-Sep-18 23:00S 35°11' E 059°16'1 1.1 1022.9 14.5
2017-Sep-18 22:00S 35°12' E 059°17'2 0.5 1023.0 14.5
2017-Sep-18 18:00S 35°14' E 059°18'1 1.3 1023.2 14.5
2017-Sep-18 17:00S 35°15' E 059°19'0 0.0 1022.8 14.5
2017-Sep-18 16:00S 35°15' E 059°19'1 0.6 1022.4 14.5
2017-Sep-18 15:00S 35°16' E 059°19'1 1.1 1022.0 14.5
2017-Sep-18 14:00S 35°16' E 059°20'1 1.1 1021.3 14.5
2017-Sep-18 13:00S 35°16' E 059°19'2 2.3 1020.8 14.6
2017-Sep-18 12:00S 35°17' E 059°20'5 4.8 1020.2 14.6
2017-Sep-18 11:00S 35°22' E 059°21'0 0.1 1019.7 14.6
2017-Sep-18 06:00S 35°22' E 059°22'1 0.6 1018.1 14.6
2017-Sep-18 05:00S 35°23' E 059°22'1 1.3 1017.4 14.5
2017-Sep-18 04:00S 35°24' E 059°21'0 0.5 1016.7 14.5
2017-Sep-18 03:00S 35°24' E 059°20'1 1.1 1015.5 14.5
2017-Sep-18 02:00S 35°25' E 059°22'1 0.8 1014.3 14.5
2017-Sep-18 01:00S 35°25' E 059°21'1 1.3 1013.3 14.5
2017-Sep-18 00:00S 35°26' E 059°20'1 0.8 1012.3 14.5
2017-Sep-17 23:00S 35°26' E 059°21'1 1.3 1011.7 14.5
2017-Sep-17 22:00S 35°27' E 059°20'3 3.0 1010.7 14.6
2017-Sep-17 21:00S 35°30' E 059°21'0 0.0 1010.4 14.6
2017-Sep-17 19:00S 35°30' E 059°21'0 0.0 1008.9 14.6
2017-Sep-17 18:00S 35°30' E 059°21'2 2.4 1007.0 14.6
2017-Sep-17 17:00S 35°32' E 059°20'0 0.0 1006.0 14.6
2017-Sep-17 15:00S 35°32' E 059°20'1 0.8 1003.9 14.7
2017-Sep-17 14:00S 35°33' E 059°21'2 0.9 1002.2 14.7
2017-Sep-17 12:00S 35°34' E 059°19'0 0.0 1000.1 14.7
2017-Sep-17 11:00S 35°34' E 059°19'1 0.8 1000.4 14.7
2017-Sep-17 10:00S 35°34' E 059°19'0 0.0 1001.5 14.7
2017-Sep-17 09:00S 35°34' E 059°19'0 0.2 1003.1 14.7
2017-Sep-17 06:00S 35°34' E 059°19'0 0.5 1007.9 14.7
2017-Sep-17 05:00S 35°34' E 059°19'0 0.2 1008.5 14.6
2017-Sep-17 03:00S 35°34' E 059°19'1 0.8 1009.5 14.6
2017-Sep-17 02:00S 35°33' E 059°20'0 0.0 1010.0 14.6
2017-Sep-17 01:00S 35°33' E 059°20'0 0.5 1010.7 14.6
2017-Sep-17 00:00S 35°33' E 059°19'0 0.0 1011.3 14.6
2017-Sep-16 23:00S 35°33' E 059°19'1 0.6 1011.3 14.6
2017-Sep-16 22:00S 35°32' E 059°19'4 0.8 1011.8 14.6
2017-Sep-16 17:00S 35°35' E 059°23'0 0.0 1013.3 14.7
2017-Sep-16 16:00S 35°35' E 059°23'0 0.0 1012.8 14.7
2017-Sep-16 15:00S 35°35' E 059°23'0 0.0 1012.2 14.7
2017-Sep-16 14:00S 35°35' E 059°23'2 1.5 1011.3 14.7
2017-Sep-16 13:00S 35°36' E 059°24'4 4.1 1010.8 14.8
2017-Sep-16 12:00S 35°40' E 059°26'   1011.0 14.7

Dump ship's entire track history